sensor_id;sensor_type;location;lat;lon;timestamp;P1;durP1;ratioP1;P2;durP2;ratioP2
73747;SDS011;62056;52.130;5.428;2023-09-07T00:02:09;6.47;;;3.90;;
73747;SDS011;62056;52.130;5.428;2023-09-07T00:04:37;4.50;;;4.15;;
73747;SDS011;62056;52.130;5.428;2023-09-07T00:07:04;4.32;;;3.92;;
73747;SDS011;62056;52.130;5.428;2023-09-07T00:09:31;7.47;;;3.83;;
73747;SDS011;62056;52.130;5.428;2023-09-07T00:11:57;4.55;;;4.15;;
73747;SDS011;62056;52.130;5.428;2023-09-07T00:14:24;4.65;;;4.25;;
73747;SDS011;62056;52.130;5.428;2023-09-07T00:16:51;4.82;;;4.35;;
73747;SDS011;62056;52.130;5.428;2023-09-07T00:19:18;5.22;;;4.13;;
73747;SDS011;62056;52.130;5.428;2023-09-07T00:21:44;5.30;;;4.80;;
73747;SDS011;62056;52.130;5.428;2023-09-07T00:24:11;5.22;;;4.72;;
73747;SDS011;62056;52.130;5.428;2023-09-07T00:26:38;5.53;;;5.03;;
73747;SDS011;62056;52.130;5.428;2023-09-07T00:29:05;5.40;;;4.78;;
73747;SDS011;62056;52.130;5.428;2023-09-07T00:31:34;5.43;;;5.03;;
73747;SDS011;62056;52.130;5.428;2023-09-07T00:34:02;7.13;;;4.77;;
73747;SDS011;62056;52.130;5.428;2023-09-07T00:36:29;5.82;;;5.30;;
73747;SDS011;62056;52.130;5.428;2023-09-07T00:38:56;5.75;;;5.10;;
73747;SDS011;62056;52.130;5.428;2023-09-07T00:41:23;5.47;;;5.07;;
73747;SDS011;62056;52.130;5.428;2023-09-07T00:43:49;6.85;;;5.25;;
73747;SDS011;62056;52.130;5.428;2023-09-07T00:46:16;6.60;;;5.50;;
73747;SDS011;62056;52.130;5.428;2023-09-07T00:48:43;6.13;;;4.88;;
73747;SDS011;62056;52.130;5.428;2023-09-07T00:51:09;10.18;;;5.10;;
73747;SDS011;62056;52.130;5.428;2023-09-07T00:53:36;5.00;;;4.60;;
73747;SDS011;62056;52.130;5.428;2023-09-07T00:56:04;6.95;;;4.88;;
73747;SDS011;62056;52.130;5.428;2023-09-07T00:58:33;5.47;;;4.90;;
73747;SDS011;62056;52.130;5.428;2023-09-07T01:01:00;5.07;;;4.68;;
73747;SDS011;62056;52.130;5.428;2023-09-07T01:03:27;5.70;;;5.07;;
73747;SDS011;62056;52.130;5.428;2023-09-07T01:05:58;6.15;;;5.03;;
73747;SDS011;62056;52.130;5.428;2023-09-07T01:08:35;5.45;;;5.03;;
73747;SDS011;62056;52.130;5.428;2023-09-07T01:11:18;5.03;;;4.60;;
73747;SDS011;62056;52.130;5.428;2023-09-07T01:13:49;5.25;;;4.75;;
73747;SDS011;62056;52.130;5.428;2023-09-07T01:16:19;5.70;;;5.30;;
73747;SDS011;62056;52.130;5.428;2023-09-07T01:18:47;5.88;;;5.40;;
73747;SDS011;62056;52.130;5.428;2023-09-07T01:21:15;6.68;;;5.43;;
73747;SDS011;62056;52.130;5.428;2023-09-07T01:23:43;6.00;;;4.60;;
73747;SDS011;62056;52.130;5.428;2023-09-07T01:26:11;5.13;;;4.72;;
73747;SDS011;62056;52.130;5.428;2023-09-07T01:28:38;5.38;;;4.97;;
73747;SDS011;62056;52.130;5.428;2023-09-07T01:31:05;5.22;;;4.82;;
73747;SDS011;62056;52.130;5.428;2023-09-07T01:33:33;6.30;;;4.93;;
73747;SDS011;62056;52.130;5.428;2023-09-07T01:36:00;7.07;;;5.00;;
73747;SDS011;62056;52.130;5.428;2023-09-07T01:38:27;6.68;;;4.88;;
73747;SDS011;62056;52.130;5.428;2023-09-07T01:40:56;5.13;;;4.70;;
73747;SDS011;62056;52.130;5.428;2023-09-07T01:43:23;6.25;;;4.05;;
73747;SDS011;62056;52.130;5.428;2023-09-07T01:45:49;7.18;;;5.55;;
73747;SDS011;62056;52.130;5.428;2023-09-07T01:48:16;5.67;;;5.27;;
73747;SDS011;62056;52.130;5.428;2023-09-07T01:50:43;5.05;;;4.55;;
73747;SDS011;62056;52.130;5.428;2023-09-07T01:53:10;5.68;;;4.80;;
73747;SDS011;62056;52.130;5.428;2023-09-07T01:55:36;6.90;;;5.60;;
73747;SDS011;62056;52.130;5.428;2023-09-07T01:58:03;6.50;;;5.82;;
73747;SDS011;62056;52.130;5.428;2023-09-07T02:00:30;5.53;;;5.13;;
73747;SDS011;62056;52.130;5.428;2023-09-07T02:02:57;8.63;;;5.43;;
73747;SDS011;62056;52.130;5.428;2023-09-07T02:05:24;5.50;;;5.05;;
73747;SDS011;62056;52.130;5.428;2023-09-07T02:07:51;6.32;;;5.05;;
73747;SDS011;62056;52.130;5.428;2023-09-07T02:10:17;6.00;;;4.72;;
73747;SDS011;62056;52.130;5.428;2023-09-07T02:12:45;6.07;;;5.17;;
73747;SDS011;62056;52.130;5.428;2023-09-07T02:15:12;5.57;;;5.05;;
73747;SDS011;62056;52.130;5.428;2023-09-07T02:17:39;5.60;;;5.20;;
73747;SDS011;62056;52.130;5.428;2023-09-07T02:20:06;5.63;;;5.13;;
73747;SDS011;62056;52.130;5.428;2023-09-07T02:22:37;5.88;;;5.28;;
73747;SDS011;62056;52.130;5.428;2023-09-07T02:25:05;5.57;;;4.80;;
73747;SDS011;62056;52.130;5.428;2023-09-07T02:27:33;6.03;;;5.43;;
73747;SDS011;62056;52.130;5.428;2023-09-07T02:30:01;5.78;;;5.38;;
73747;SDS011;62056;52.130;5.428;2023-09-07T02:32:30;6.07;;;5.45;;
73747;SDS011;62056;52.130;5.428;2023-09-07T02:34:58;7.88;;;4.80;;
73747;SDS011;62056;52.130;5.428;2023-09-07T02:37:25;5.37;;;4.87;;
73747;SDS011;62056;52.130;5.428;2023-09-07T02:39:52;9.77;;;5.35;;
73747;SDS011;62056;52.130;5.428;2023-09-07T02:42:20;6.82;;;5.40;;
73747;SDS011;62056;52.130;5.428;2023-09-07T02:44:47;5.30;;;4.80;;
73747;SDS011;62056;52.130;5.428;2023-09-07T02:47:14;6.38;;;5.53;;
73747;SDS011;62056;52.130;5.428;2023-09-07T02:49:41;8.07;;;4.83;;
73747;SDS011;62056;52.130;5.428;2023-09-07T02:52:07;6.00;;;5.40;;
73747;SDS011;62056;52.130;5.428;2023-09-07T02:54:34;5.80;;;5.22;;
73747;SDS011;62056;52.130;5.428;2023-09-07T02:57:01;4.88;;;4.47;;
73747;SDS011;62056;52.130;5.428;2023-09-07T02:59:28;4.90;;;4.50;;
73747;SDS011;62056;52.130;5.428;2023-09-07T03:01:54;7.27;;;4.67;;
73747;SDS011;62056;52.130;5.428;2023-09-07T03:04:21;7.13;;;4.72;;
73747;SDS011;62056;52.130;5.428;2023-09-07T03:06:48;6.03;;;5.35;;
73747;SDS011;62056;52.130;5.428;2023-09-07T03:09:15;5.00;;;4.60;;
73747;SDS011;62056;52.130;5.428;2023-09-07T03:11:42;5.10;;;4.70;;
73747;SDS011;62056;52.130;5.428;2023-09-07T03:14:08;7.57;;;4.80;;
73747;SDS011;62056;52.130;5.428;2023-09-07T03:16:35;6.22;;;4.78;;
73747;SDS011;62056;52.130;5.428;2023-09-07T03:19:05;4.80;;;4.40;;
73747;SDS011;62056;52.130;5.428;2023-09-07T03:21:32;6.80;;;4.43;;
73747;SDS011;62056;52.130;5.428;2023-09-07T03:23:59;9.55;;;4.75;;
73747;SDS011;62056;52.130;5.428;2023-09-07T03:26:26;4.93;;;4.53;;
73747;SDS011;62056;52.130;5.428;2023-09-07T03:28:53;5.22;;;4.43;;
73747;SDS011;62056;52.130;5.428;2023-09-07T03:31:19;7.22;;;4.57;;
73747;SDS011;62056;52.130;5.428;2023-09-07T03:33:46;4.95;;;4.45;;
73747;SDS011;62056;52.130;5.428;2023-09-07T03:36:13;4.57;;;4.28;;
73747;SDS011;62056;52.130;5.428;2023-09-07T03:38:43;5.17;;;4.77;;
73747;SDS011;62056;52.130;5.428;2023-09-07T03:41:09;4.40;;;4.10;;
73747;SDS011;62056;52.130;5.428;2023-09-07T03:43:36;10.43;;;4.97;;
73747;SDS011;62056;52.130;5.428;2023-09-07T03:46:03;4.45;;;4.05;;
73747;SDS011;62056;52.130;5.428;2023-09-07T03:48:30;5.53;;;5.13;;
73747;SDS011;62056;52.130;5.428;2023-09-07T03:51:00;5.00;;;4.60;;
73747;SDS011;62056;52.130;5.428;2023-09-07T03:53:27;5.03;;;4.63;;
73747;SDS011;62056;52.130;5.428;2023-09-07T03:55:53;4.97;;;4.57;;
73747;SDS011;62056;52.130;5.428;2023-09-07T03:58:20;6.63;;;4.38;;
73747;SDS011;62056;52.130;5.428;2023-09-07T04:00:47;5.18;;;3.97;;
73747;SDS011;62056;52.130;5.428;2023-09-07T04:03:14;6.93;;;4.57;;
73747;SDS011;62056;52.130;5.428;2023-09-07T04:05:41;4.53;;;4.03;;
73747;SDS011;62056;52.130;5.428;2023-09-07T04:08:08;8.35;;;4.03;;
73747;SDS011;62056;52.130;5.428;2023-09-07T04:10:38;5.05;;;4.65;;
73747;SDS011;62056;52.130;5.428;2023-09-07T04:13:05;5.68;;;4.28;;
73747;SDS011;62056;52.130;5.428;2023-09-07T04:15:40;4.87;;;4.40;;
73747;SDS011;62056;52.130;5.428;2023-09-07T04:18:08;4.40;;;4.00;;
73747;SDS011;62056;52.130;5.428;2023-09-07T04:20:34;5.82;;;4.10;;
73747;SDS011;62056;52.130;5.428;2023-09-07T04:23:01;4.47;;;4.07;;
73747;SDS011;62056;52.130;5.428;2023-09-07T04:25:28;4.53;;;4.13;;
73747;SDS011;62056;52.130;5.428;2023-09-07T04:27:55;4.40;;;4.00;;
73747;SDS011;62056;52.130;5.428;2023-09-07T04:30:23;4.65;;;4.25;;
73747;SDS011;62056;52.130;5.428;2023-09-07T04:32:49;4.82;;;4.22;;
73747;SDS011;62056;52.130;5.428;2023-09-07T04:35:16;4.18;;;3.83;;
73747;SDS011;62056;52.130;5.428;2023-09-07T04:37:44;5.28;;;4.80;;
73747;SDS011;62056;52.130;5.428;2023-09-07T04:40:11;6.07;;;4.40;;
73747;SDS011;62056;52.130;5.428;2023-09-07T04:42:38;5.22;;;4.65;;
73747;SDS011;62056;52.130;5.428;2023-09-07T04:45:05;4.90;;;4.50;;
73747;SDS011;62056;52.130;5.428;2023-09-07T04:47:32;4.80;;;4.40;;
73747;SDS011;62056;52.130;5.428;2023-09-07T04:50:00;8.05;;;4.55;;
73747;SDS011;62056;52.130;5.428;2023-09-07T04:52:27;4.80;;;4.40;;
73747;SDS011;62056;52.130;5.428;2023-09-07T04:54:53;5.57;;;4.60;;
73747;SDS011;62056;52.130;5.428;2023-09-07T04:57:20;4.75;;;4.35;;
73747;SDS011;62056;52.130;5.428;2023-09-07T04:59:47;4.50;;;4.20;;
73747;SDS011;62056;52.130;5.428;2023-09-07T05:02:14;5.28;;;4.57;;
73747;SDS011;62056;52.130;5.428;2023-09-07T05:04:41;4.67;;;4.27;;
73747;SDS011;62056;52.130;5.428;2023-09-07T05:07:07;5.32;;;4.45;;
73747;SDS011;62056;52.130;5.428;2023-09-07T05:09:34;5.10;;;4.50;;
73747;SDS011;62056;52.130;5.428;2023-09-07T05:12:01;5.25;;;4.75;;
73747;SDS011;62056;52.130;5.428;2023-09-07T05:14:28;6.07;;;5.13;;
73747;SDS011;62056;52.130;5.428;2023-09-07T05:16:56;4.47;;;4.17;;
73747;SDS011;62056;52.130;5.428;2023-09-07T05:19:22;4.82;;;4.43;;
73747;SDS011;62056;52.130;5.428;2023-09-07T05:21:49;5.85;;;4.55;;
73747;SDS011;62056;52.130;5.428;2023-09-07T05:24:16;8.38;;;5.20;;
73747;SDS011;62056;52.130;5.428;2023-09-07T05:26:43;6.25;;;5.00;;
73747;SDS011;62056;52.130;5.428;2023-09-07T05:29:11;5.77;;;5.13;;
73747;SDS011;62056;52.130;5.428;2023-09-07T05:31:38;5.97;;;5.00;;
73747;SDS011;62056;52.130;5.428;2023-09-07T05:34:05;4.88;;;4.43;;
73747;SDS011;62056;52.130;5.428;2023-09-07T05:36:31;4.97;;;4.50;;
73747;SDS011;62056;52.130;5.428;2023-09-07T05:38:58;8.00;;;5.50;;
73747;SDS011;62056;52.130;5.428;2023-09-07T05:41:25;5.03;;;4.63;;
73747;SDS011;62056;52.130;5.428;2023-09-07T05:43:52;6.50;;;5.07;;
73747;SDS011;62056;52.130;5.428;2023-09-07T05:46:19;5.80;;;5.28;;
73747;SDS011;62056;52.130;5.428;2023-09-07T05:48:46;6.45;;;5.40;;
73747;SDS011;62056;52.130;5.428;2023-09-07T05:51:13;8.35;;;5.13;;
73747;SDS011;62056;52.130;5.428;2023-09-07T05:53:39;6.20;;;5.50;;
73747;SDS011;62056;52.130;5.428;2023-09-07T05:56:06;6.63;;;5.47;;
73747;SDS011;62056;52.130;5.428;2023-09-07T05:58:33;7.10;;;5.38;;
73747;SDS011;62056;52.130;5.428;2023-09-07T06:01:00;6.68;;;5.57;;
73747;SDS011;62056;52.130;5.428;2023-09-07T06:03:27;8.77;;;6.65;;
73747;SDS011;62056;52.130;5.428;2023-09-07T06:05:54;6.40;;;5.90;;
73747;SDS011;62056;52.130;5.428;2023-09-07T06:08:21;6.47;;;5.95;;
73747;SDS011;62056;52.130;5.428;2023-09-07T06:10:48;7.35;;;6.68;;
73747;SDS011;62056;52.130;5.428;2023-09-07T06:13:15;8.23;;;5.63;;
73747;SDS011;62056;52.130;5.428;2023-09-07T06:15:41;8.02;;;6.15;;
73747;SDS011;62056;52.130;5.428;2023-09-07T06:18:08;12.80;;;6.07;;
73747;SDS011;62056;52.130;5.428;2023-09-07T06:20:35;6.82;;;6.13;;
73747;SDS011;62056;52.130;5.428;2023-09-07T06:23:02;14.32;;;7.45;;
73747;SDS011;62056;52.130;5.428;2023-09-07T06:25:29;9.00;;;5.90;;
73747;SDS011;62056;52.130;5.428;2023-09-07T06:27:56;6.82;;;6.20;;
73747;SDS011;62056;52.130;5.428;2023-09-07T06:30:23;6.33;;;5.40;;
73747;SDS011;62056;52.130;5.428;2023-09-07T06:32:49;6.47;;;5.80;;
73747;SDS011;62056;52.130;5.428;2023-09-07T06:35:17;7.32;;;5.75;;
73747;SDS011;62056;52.130;5.428;2023-09-07T06:37:45;8.18;;;6.57;;
73747;SDS011;62056;52.130;5.428;2023-09-07T06:40:12;6.63;;;6.03;;
73747;SDS011;62056;52.130;5.428;2023-09-07T06:42:39;9.33;;;5.87;;
73747;SDS011;62056;52.130;5.428;2023-09-07T06:45:07;6.30;;;5.80;;
73747;SDS011;62056;52.130;5.428;2023-09-07T06:47:34;6.60;;;6.00;;
73747;SDS011;62056;52.130;5.428;2023-09-07T06:50:02;10.57;;;5.40;;
73747;SDS011;62056;52.130;5.428;2023-09-07T06:52:28;9.10;;;5.82;;
73747;SDS011;62056;52.130;5.428;2023-09-07T06:54:56;7.50;;;5.80;;
73747;SDS011;62056;52.130;5.428;2023-09-07T06:57:23;9.05;;;5.82;;
73747;SDS011;62056;52.130;5.428;2023-09-07T06:59:50;8.93;;;6.07;;
73747;SDS011;62056;52.130;5.428;2023-09-07T07:02:16;6.40;;;5.80;;
73747;SDS011;62056;52.130;5.428;2023-09-07T07:04:43;6.20;;;5.70;;
73747;SDS011;62056;52.130;5.428;2023-09-07T07:07:13;6.73;;;5.50;;
73747;SDS011;62056;52.130;5.428;2023-09-07T07:09:39;12.88;;;5.32;;
73747;SDS011;62056;52.130;5.428;2023-09-07T07:12:06;5.88;;;5.15;;
73747;SDS011;62056;52.130;5.428;2023-09-07T07:14:33;6.03;;;5.30;;
73747;SDS011;62056;52.130;5.428;2023-09-07T07:17:01;5.15;;;4.75;;
73747;SDS011;62056;52.130;5.428;2023-09-07T07:19:31;5.53;;;5.10;;
73747;SDS011;62056;52.130;5.428;2023-09-07T07:21:58;8.25;;;5.65;;
73747;SDS011;62056;52.130;5.428;2023-09-07T07:24:25;7.28;;;5.20;;
73747;SDS011;62056;52.130;5.428;2023-09-07T07:26:52;10.02;;;5.25;;
73747;SDS011;62056;52.130;5.428;2023-09-07T07:29:19;10.48;;;6.10;;
73747;SDS011;62056;52.130;5.428;2023-09-07T07:31:45;6.40;;;5.67;;
73747;SDS011;62056;52.130;5.428;2023-09-07T07:34:13;6.15;;;5.55;;
73747;SDS011;62056;52.130;5.428;2023-09-07T07:36:43;6.22;;;5.70;;
73747;SDS011;62056;52.130;5.428;2023-09-07T07:39:09;4.80;;;4.32;;
73747;SDS011;62056;52.130;5.428;2023-09-07T07:41:37;6.07;;;5.05;;
73747;SDS011;62056;52.130;5.428;2023-09-07T07:44:07;5.67;;;5.17;;
73747;SDS011;62056;52.130;5.428;2023-09-07T07:46:34;5.63;;;5.07;;
73747;SDS011;62056;52.130;5.428;2023-09-07T07:49:01;8.20;;;5.75;;
73747;SDS011;62056;52.130;5.428;2023-09-07T07:51:28;6.45;;;5.70;;
73747;SDS011;62056;52.130;5.428;2023-09-07T07:53:55;6.90;;;5.85;;
73747;SDS011;62056;52.130;5.428;2023-09-07T07:56:25;5.60;;;5.17;;
73747;SDS011;62056;52.130;5.428;2023-09-07T07:58:52;5.93;;;5.40;;
73747;SDS011;62056;52.130;5.428;2023-09-07T08:01:19;6.55;;;5.95;;
73747;SDS011;62056;52.130;5.428;2023-09-07T08:03:47;6.38;;;5.78;;
73747;SDS011;62056;52.130;5.428;2023-09-07T08:06:14;9.95;;;6.63;;
73747;SDS011;62056;52.130;5.428;2023-09-07T08:08:41;6.17;;;5.67;;
73747;SDS011;62056;52.130;5.428;2023-09-07T08:11:08;12.38;;;5.22;;
73747;SDS011;62056;52.130;5.428;2023-09-07T08:13:35;7.82;;;5.05;;
73747;SDS011;62056;52.130;5.428;2023-09-07T08:16:03;6.57;;;5.50;;
73747;SDS011;62056;52.130;5.428;2023-09-07T08:18:34;6.13;;;5.55;;
73747;SDS011;62056;52.130;5.428;2023-09-07T08:21:02;8.57;;;5.60;;
73747;SDS011;62056;52.130;5.428;2023-09-07T08:23:30;5.93;;;5.38;;
73747;SDS011;62056;52.130;5.428;2023-09-07T08:25:57;7.80;;;4.70;;
73747;SDS011;62056;52.130;5.428;2023-09-07T08:28:25;5.75;;;5.10;;
73747;SDS011;62056;52.130;5.428;2023-09-07T08:30:53;5.22;;;4.72;;
73747;SDS011;62056;52.130;5.428;2023-09-07T08:33:21;7.80;;;4.20;;
73747;SDS011;62056;52.130;5.428;2023-09-07T08:36:10;5.53;;;4.40;;
73747;SDS011;62056;52.130;5.428;2023-09-07T08:38:39;6.45;;;4.50;;
73747;SDS011;62056;52.130;5.428;2023-09-07T08:41:06;8.50;;;4.25;;
73747;SDS011;62056;52.130;5.428;2023-09-07T08:43:35;5.28;;;4.30;;
73747;SDS011;62056;52.130;5.428;2023-09-07T08:46:49;4.47;;;4.10;;
73747;SDS011;62056;52.130;5.428;2023-09-07T08:49:16;8.10;;;3.90;;
73747;SDS011;62056;52.130;5.428;2023-09-07T08:51:47;7.55;;;3.75;;
73747;SDS011;62056;52.130;5.428;2023-09-07T08:54:15;4.78;;;3.75;;
73747;SDS011;62056;52.130;5.428;2023-09-07T08:56:41;4.45;;;4.05;;
73747;SDS011;62056;52.130;5.428;2023-09-07T08:59:09;9.30;;;3.97;;
73747;SDS011;62056;52.130;5.428;2023-09-07T09:01:35;5.28;;;4.22;;
73747;SDS011;62056;52.130;5.428;2023-09-07T09:04:03;8.32;;;4.00;;
73747;SDS011;62056;52.130;5.428;2023-09-07T09:06:30;10.35;;;3.67;;
73747;SDS011;62056;52.130;5.428;2023-09-07T09:08:58;3.83;;;3.50;;
73747;SDS011;62056;52.130;5.428;2023-09-07T09:11:25;8.50;;;4.53;;
73747;SDS011;62056;52.130;5.428;2023-09-07T09:13:54;14.77;;;3.60;;
73747;SDS011;62056;52.130;5.428;2023-09-07T09:16:23;8.43;;;3.60;;
73747;SDS011;62056;52.130;5.428;2023-09-07T09:21:22;5.32;;;3.72;;
73747;SDS011;62056;52.130;5.428;2023-09-07T09:23:51;7.70;;;4.60;;
73747;SDS011;62056;52.130;5.428;2023-09-07T09:26:19;3.78;;;3.17;;
73747;SDS011;62056;52.130;5.428;2023-09-07T09:28:46;5.55;;;3.70;;
73747;SDS011;62056;52.130;5.428;2023-09-07T09:31:14;5.60;;;3.00;;
73747;SDS011;62056;52.130;5.428;2023-09-07T09:33:42;3.30;;;2.67;;
73747;SDS011;62056;52.130;5.428;2023-09-07T09:36:14;3.10;;;2.80;;
73747;SDS011;62056;52.130;5.428;2023-09-07T09:38:46;5.30;;;2.95;;
73747;SDS011;62056;52.130;5.428;2023-09-07T09:41:19;4.63;;;2.97;;
73747;SDS011;62056;52.130;5.428;2023-09-07T09:43:48;7.55;;;3.10;;
73747;SDS011;62056;52.130;5.428;2023-09-07T09:46:15;4.13;;;3.13;;
73747;SDS011;62056;52.130;5.428;2023-09-07T09:48:44;7.67;;;3.27;;
73747;SDS011;62056;52.130;5.428;2023-09-07T09:51:11;3.38;;;2.85;;
73747;SDS011;62056;52.130;5.428;2023-09-07T09:53:41;5.03;;;3.15;;
73747;SDS011;62056;52.130;5.428;2023-09-07T09:56:09;3.92;;;3.03;;
73747;SDS011;62056;52.130;5.428;2023-09-07T09:58:36;7.28;;;3.35;;
73747;SDS011;62056;52.130;5.428;2023-09-07T10:01:04;5.20;;;2.87;;
73747;SDS011;62056;52.130;5.428;2023-09-07T10:03:34;4.63;;;3.83;;
73747;SDS011;62056;52.130;5.428;2023-09-07T10:06:23;5.95;;;2.60;;
73747;SDS011;62056;52.130;5.428;2023-09-07T10:09:10;4.30;;;3.20;;
73747;SDS011;62056;52.130;5.428;2023-09-07T10:11:43;2.97;;;2.67;;
73747;SDS011;62056;52.130;5.428;2023-09-07T10:14:20;5.43;;;3.20;;
73747;SDS011;62056;52.130;5.428;2023-09-07T10:16:51;4.63;;;3.08;;
73747;SDS011;62056;52.130;5.428;2023-09-07T10:19:23;11.32;;;3.30;;
73747;SDS011;62056;52.130;5.428;2023-09-07T10:21:52;9.27;;;3.00;;
73747;SDS011;62056;52.130;5.428;2023-09-07T10:27:00;6.90;;;2.67;;
73747;SDS011;62056;52.130;5.428;2023-09-07T10:29:41;6.13;;;3.15;;
73747;SDS011;62056;52.130;5.428;2023-09-07T10:32:09;7.55;;;2.67;;
73747;SDS011;62056;52.130;5.428;2023-09-07T10:34:40;3.47;;;2.70;;
73747;SDS011;62056;52.130;5.428;2023-09-07T10:37:14;3.92;;;3.63;;
73747;SDS011;62056;52.130;5.428;2023-09-07T10:39:42;3.40;;;2.97;;
73747;SDS011;62056;52.130;5.428;2023-09-07T10:42:21;4.72;;;2.80;;
73747;SDS011;62056;52.130;5.428;2023-09-07T10:44:49;4.28;;;3.72;;
73747;SDS011;62056;52.130;5.428;2023-09-07T10:47:16;3.45;;;3.15;;
73747;SDS011;62056;52.130;5.428;2023-09-07T10:49:43;5.53;;;3.45;;
73747;SDS011;62056;52.130;5.428;2023-09-07T10:52:11;3.03;;;2.73;;
73747;SDS011;62056;52.130;5.428;2023-09-07T10:54:39;5.53;;;3.03;;
73747;SDS011;62056;52.130;5.428;2023-09-07T10:57:11;3.10;;;2.90;;
73747;SDS011;62056;52.130;5.428;2023-09-07T10:59:46;3.65;;;3.35;;
73747;SDS011;62056;52.130;5.428;2023-09-07T11:02:14;3.33;;;3.00;;
73747;SDS011;62056;52.130;5.428;2023-09-07T11:04:42;6.23;;;3.20;;
73747;SDS011;62056;52.130;5.428;2023-09-07T11:07:09;6.63;;;2.95;;
73747;SDS011;62056;52.130;5.428;2023-09-07T11:09:40;4.78;;;3.00;;
73747;SDS011;62056;52.130;5.428;2023-09-07T11:12:13;2.90;;;2.70;;
73747;SDS011;62056;52.130;5.428;2023-09-07T11:14:42;11.15;;;3.20;;
73747;SDS011;62056;52.130;5.428;2023-09-07T11:17:09;2.90;;;2.60;;
73747;SDS011;62056;52.130;5.428;2023-09-07T11:19:57;3.50;;;3.03;;
73747;SDS011;62056;52.130;5.428;2023-09-07T11:22:24;4.78;;;2.50;;
73747;SDS011;62056;52.130;5.428;2023-09-07T11:24:51;3.05;;;2.70;;
73747;SDS011;62056;52.130;5.428;2023-09-07T11:27:18;4.85;;;2.70;;
73747;SDS011;62056;52.130;5.428;2023-09-07T11:29:52;6.60;;;2.93;;
73747;SDS011;62056;52.130;5.428;2023-09-07T11:32:19;3.40;;;2.50;;
73747;SDS011;62056;52.130;5.428;2023-09-07T11:34:48;5.40;;;3.10;;
73747;SDS011;62056;52.130;5.428;2023-09-07T11:37:25;3.17;;;2.90;;
73747;SDS011;62056;52.130;5.428;2023-09-07T11:39:52;3.80;;;2.90;;
73747;SDS011;62056;52.130;5.428;2023-09-07T11:42:19;5.60;;;2.90;;
73747;SDS011;62056;52.130;5.428;2023-09-07T11:44:49;3.85;;;2.70;;
73747;SDS011;62056;52.130;5.428;2023-09-07T11:47:16;2.83;;;2.63;;
73747;SDS011;62056;52.130;5.428;2023-09-07T11:49:43;3.15;;;2.83;;
73747;SDS011;62056;52.130;5.428;2023-09-07T11:52:11;3.60;;;3.30;;
73747;SDS011;62056;52.130;5.428;2023-09-07T11:54:39;2.53;;;2.33;;
73747;SDS011;62056;52.130;5.428;2023-09-07T11:57:05;4.18;;;3.28;;
73747;SDS011;62056;52.130;5.428;2023-09-07T11:59:32;3.50;;;3.20;;
73747;SDS011;62056;52.130;5.428;2023-09-07T12:02:17;5.50;;;3.20;;
73747;SDS011;62056;52.130;5.428;2023-09-07T12:04:48;4.90;;;3.40;;
73747;SDS011;62056;52.130;5.428;2023-09-07T12:07:15;4.10;;;2.70;;
73747;SDS011;62056;52.130;5.428;2023-09-07T12:09:41;3.60;;;3.30;;
73747;SDS011;62056;52.130;5.428;2023-09-07T12:12:09;4.00;;;3.25;;
73747;SDS011;62056;52.130;5.428;2023-09-07T12:14:37;3.58;;;3.28;;
73747;SDS011;62056;52.130;5.428;2023-09-07T12:17:03;3.80;;;3.17;;
73747;SDS011;62056;52.130;5.428;2023-09-07T12:19:31;7.23;;;3.63;;
73747;SDS011;62056;52.130;5.428;2023-09-07T12:21:58;4.28;;;3.30;;
73747;SDS011;62056;52.130;5.428;2023-09-07T12:24:25;3.50;;;3.22;;
73747;SDS011;62056;52.130;5.428;2023-09-07T12:26:51;3.97;;;3.00;;
73747;SDS011;62056;52.130;5.428;2023-09-07T12:29:18;3.65;;;3.13;;
73747;SDS011;62056;52.130;5.428;2023-09-07T12:31:46;7.73;;;3.43;;
73747;SDS011;62056;52.130;5.428;2023-09-07T12:34:13;3.17;;;2.97;;
73747;SDS011;62056;52.130;5.428;2023-09-07T12:36:45;8.88;;;3.22;;
73747;SDS011;62056;52.130;5.428;2023-09-07T12:39:13;5.65;;;3.08;;
73747;SDS011;62056;52.130;5.428;2023-09-07T12:41:40;5.53;;;3.53;;
73747;SDS011;62056;52.130;5.428;2023-09-07T12:44:07;4.30;;;3.23;;
73747;SDS011;62056;52.130;5.428;2023-09-07T12:46:35;5.50;;;3.20;;
73747;SDS011;62056;52.130;5.428;2023-09-07T12:49:03;3.72;;;3.42;;
73747;SDS011;62056;52.130;5.428;2023-09-07T12:51:33;6.13;;;2.92;;
73747;SDS011;62056;52.130;5.428;2023-09-07T12:54:00;6.43;;;3.67;;
73747;SDS011;62056;52.130;5.428;2023-09-07T12:56:26;4.00;;;3.03;;
73747;SDS011;62056;52.130;5.428;2023-09-07T12:58:53;3.40;;;3.08;;
73747;SDS011;62056;52.130;5.428;2023-09-07T13:01:20;5.35;;;3.60;;
73747;SDS011;62056;52.130;5.428;2023-09-07T13:03:48;3.25;;;3.05;;
73747;SDS011;62056;52.130;5.428;2023-09-07T13:06:20;3.08;;;2.78;;
73747;SDS011;62056;52.130;5.428;2023-09-07T13:08:47;7.10;;;3.37;;
73747;SDS011;62056;52.130;5.428;2023-09-07T13:11:14;6.88;;;4.22;;
73747;SDS011;62056;52.130;5.428;2023-09-07T13:13:40;3.97;;;3.58;;
73747;SDS011;62056;52.130;5.428;2023-09-07T13:16:07;4.60;;;4.30;;
73747;SDS011;62056;52.130;5.428;2023-09-07T13:18:34;5.68;;;3.30;;
73747;SDS011;62056;52.130;5.428;2023-09-07T13:21:04;3.90;;;3.50;;
73747;SDS011;62056;52.130;5.428;2023-09-07T13:23:31;5.53;;;2.88;;
73747;SDS011;62056;52.130;5.428;2023-09-07T13:25:59;6.28;;;3.17;;
73747;SDS011;62056;52.130;5.428;2023-09-07T13:28:30;3.88;;;3.03;;
73747;SDS011;62056;52.130;5.428;2023-09-07T13:31:00;5.63;;;3.70;;
73747;SDS011;62056;52.130;5.428;2023-09-07T13:33:27;3.57;;;3.17;;
73747;SDS011;62056;52.130;5.428;2023-09-07T13:35:56;7.50;;;3.00;;
73747;SDS011;62056;52.130;5.428;2023-09-07T13:38:23;6.95;;;3.25;;
73747;SDS011;62056;52.130;5.428;2023-09-07T13:40:52;3.50;;;3.20;;
73747;SDS011;62056;52.130;5.428;2023-09-07T13:43:19;8.43;;;3.88;;
73747;SDS011;62056;52.130;5.428;2023-09-07T13:45:47;3.63;;;3.30;;
73747;SDS011;62056;52.130;5.428;2023-09-07T13:48:17;3.75;;;3.45;;
73747;SDS011;62056;52.130;5.428;2023-09-07T13:50:43;3.80;;;3.53;;
73747;SDS011;62056;52.130;5.428;2023-09-07T13:53:10;5.22;;;3.60;;
73747;SDS011;62056;52.130;5.428;2023-09-07T13:55:38;4.80;;;3.95;;
73747;SDS011;62056;52.130;5.428;2023-09-07T13:58:06;4.53;;;3.37;;
73747;SDS011;62056;52.130;5.428;2023-09-07T14:00:33;3.47;;;3.28;;
73747;SDS011;62056;52.130;5.428;2023-09-07T14:03:03;3.47;;;3.17;;
73747;SDS011;62056;52.130;5.428;2023-09-07T14:05:30;3.92;;;3.63;;
73747;SDS011;62056;52.130;5.428;2023-09-07T14:07:57;3.92;;;3.58;;
73747;SDS011;62056;52.130;5.428;2023-09-07T14:10:26;4.70;;;3.70;;
73747;SDS011;62056;52.130;5.428;2023-09-07T14:13:05;4.97;;;3.20;;
73747;SDS011;62056;52.130;5.428;2023-09-07T14:15:34;5.32;;;3.28;;
73747;SDS011;62056;52.130;5.428;2023-09-07T14:18:01;3.22;;;3.03;;
73747;SDS011;62056;52.130;5.428;2023-09-07T14:20:29;3.63;;;3.20;;
73747;SDS011;62056;52.130;5.428;2023-09-07T14:22:59;4.63;;;2.90;;
73747;SDS011;62056;52.130;5.428;2023-09-07T14:25:47;3.40;;;3.10;;
73747;SDS011;62056;52.130;5.428;2023-09-07T14:28:17;4.32;;;3.60;;
73747;SDS011;62056;52.130;5.428;2023-09-07T14:31:03;11.30;;;3.45;;
73747;SDS011;62056;52.130;5.428;2023-09-07T14:33:52;8.43;;;5.15;;
73747;SDS011;62056;52.130;5.428;2023-09-07T14:36:21;5.27;;;3.20;;
73747;SDS011;62056;52.130;5.428;2023-09-07T14:38:48;4.07;;;3.40;;
73747;SDS011;62056;52.130;5.428;2023-09-07T14:41:15;3.85;;;3.55;;
73747;SDS011;62056;52.130;5.428;2023-09-07T14:43:46;3.28;;;3.08;;
73747;SDS011;62056;52.130;5.428;2023-09-07T14:46:16;6.60;;;3.25;;
73747;SDS011;62056;52.130;5.428;2023-09-07T14:48:44;3.23;;;3.03;;
73747;SDS011;62056;52.130;5.428;2023-09-07T14:51:11;3.60;;;3.40;;
73747;SDS011;62056;52.130;5.428;2023-09-07T14:53:37;4.57;;;3.60;;
73747;SDS011;62056;52.130;5.428;2023-09-07T14:56:04;4.60;;;3.97;;
73747;SDS011;62056;52.130;5.428;2023-09-07T14:58:33;5.93;;;3.25;;
73747;SDS011;62056;52.130;5.428;2023-09-07T15:01:00;5.50;;;3.60;;